createdAt,value
2023-05-13T00:00:26.363Z,8.37
2023-05-13T00:02:52.828Z,7.93
2023-05-13T00:05:19.388Z,7.77
2023-05-13T00:07:45.876Z,7.70
2023-05-13T00:10:12.346Z,7.50
2023-05-13T00:12:38.687Z,8.13
2023-05-13T00:15:05.597Z,7.33
2023-05-13T00:17:31.997Z,7.90
2023-05-13T00:19:58.440Z,7.60
2023-05-13T00:22:24.997Z,7.17
2023-05-13T00:24:51.336Z,7.70
2023-05-13T00:27:17.694Z,7.63
2023-05-13T00:29:44.236Z,7.37
2023-05-13T00:32:10.615Z,8.20
2023-05-13T00:34:37.170Z,8.27
2023-05-13T00:37:03.915Z,8.30
2023-05-13T00:39:30.307Z,7.90
2023-05-13T00:41:56.873Z,8.73
2023-05-13T00:44:23.282Z,8.77
2023-05-13T00:46:49.874Z,8.33
2023-05-13T00:49:16.250Z,7.77
2023-05-13T00:51:43.030Z,8.13
2023-05-13T00:54:09.386Z,7.00
2023-05-13T00:56:38.081Z,8.00
2023-05-13T00:59:04.704Z,6.90
2023-05-13T01:02:24.379Z,7.13
2023-05-13T01:05:02.502Z,7.30
2023-05-13T01:07:48.439Z,7.53
2023-05-13T01:10:17.454Z,7.27
2023-05-13T01:12:46.366Z,7.60
2023-05-13T01:15:17.358Z,7.00
2023-05-13T01:17:53.557Z,7.20
2023-05-13T01:20:24.647Z,7.57
2023-05-13T01:22:51.371Z,7.43
2023-05-13T01:25:17.707Z,7.30
2023-05-13T01:27:44.503Z,6.43
2023-05-13T01:30:11.613Z,7.33
2023-05-13T01:32:38.545Z,5.97
2023-05-13T01:35:07.717Z,6.37
2023-05-13T01:37:35.150Z,6.30
2023-05-13T01:40:02.494Z,7.03
2023-05-13T01:42:30.185Z,5.80
2023-05-13T01:44:57.640Z,5.83
2023-05-13T01:47:23.997Z,5.60
2023-05-13T01:49:50.522Z,5.80
2023-05-13T01:52:16.899Z,6.00
2023-05-13T01:54:43.299Z,6.10
2023-05-13T01:57:09.760Z,5.50
2023-05-13T01:59:36.086Z,5.60
2023-05-13T02:02:02.565Z,5.47
2023-05-13T02:04:29.722Z,5.60
2023-05-13T02:06:56.044Z,5.47
2023-05-13T02:09:22.500Z,6.13
2023-05-13T02:11:48.852Z,5.70
2023-05-13T02:14:15.595Z,5.80
2023-05-13T02:16:42.127Z,6.27
2023-05-13T02:19:08.758Z,5.77
2023-05-13T02:21:35.313Z,5.60
2023-05-13T02:24:01.778Z,5.80
2023-05-13T02:26:28.320Z,5.50
2023-05-13T02:28:55.505Z,5.40
2023-05-13T02:31:21.916Z,5.37
2023-05-13T02:33:48.369Z,6.13
2023-05-13T02:36:14.677Z,6.40
2023-05-13T02:38:41.370Z,6.43
2023-05-13T02:41:08.766Z,5.43
2023-05-13T02:43:35.416Z,5.90
2023-05-13T02:46:02.634Z,6.20
2023-05-13T02:48:29.130Z,5.73
2023-05-13T02:50:55.566Z,5.97
2023-05-13T02:53:21.971Z,5.80
2023-05-13T02:55:48.593Z,6.10
2023-05-13T02:58:15.090Z,6.50
2023-05-13T03:00:42.756Z,6.00
2023-05-13T03:03:09.249Z,6.20
2023-05-13T03:05:35.732Z,6.40
2023-05-13T03:08:02.125Z,6.60
2023-05-13T03:10:28.629Z,6.60
2023-05-13T03:12:54.934Z,6.60
2023-05-13T03:15:22.240Z,7.83
2023-05-13T03:17:48.805Z,6.47
2023-05-13T03:20:15.232Z,6.13
2023-05-13T03:22:42.812Z,7.67
2023-05-13T03:25:09.343Z,6.17
2023-05-13T03:27:35.831Z,6.20
2023-05-13T03:30:02.251Z,5.93
2023-05-13T03:32:30.790Z,5.57
2023-05-13T03:34:58.349Z,6.00
2023-05-13T03:37:24.837Z,5.97
2023-05-13T03:39:51.652Z,5.90
2023-05-13T03:42:18.185Z,5.80
2023-05-13T03:44:44.559Z,5.77
2023-05-13T03:47:11.029Z,5.50
2023-05-13T03:49:37.725Z,5.57
2023-05-13T03:52:04.375Z,5.53
2023-05-13T03:54:30.845Z,6.20
2023-05-13T03:56:57.821Z,5.70
2023-05-13T03:59:24.212Z,5.97
2023-05-13T04:01:51.066Z,5.70
2023-05-13T04:04:17.476Z,5.20
2023-05-13T04:06:43.860Z,6.10
2023-05-13T04:09:10.314Z,5.87
2023-05-13T04:11:36.889Z,5.17
2023-05-13T04:14:03.892Z,6.03
2023-05-13T04:16:30.395Z,6.17
2023-05-13T04:18:56.849Z,5.43
2023-05-13T04:21:23.365Z,5.90
2023-05-13T04:23:49.695Z,5.50
2023-05-13T04:26:16.230Z,5.57
2023-05-13T04:28:42.648Z,6.30
2023-05-13T04:31:09.030Z,5.17
2023-05-13T04:33:35.580Z,5.70
2023-05-13T04:36:01.917Z,6.03
2023-05-13T04:38:28.297Z,5.67
2023-05-13T04:40:55.876Z,5.97
2023-05-13T04:43:22.477Z,5.90
2023-05-13T04:45:49.292Z,5.70
2023-05-13T04:48:16.158Z,5.70
2023-05-13T04:50:46.914Z,5.90
2023-05-13T04:53:14.296Z,5.93
2023-05-13T04:55:40.879Z,6.00
2023-05-13T04:58:07.290Z,6.27
2023-05-13T05:00:33.710Z,6.17
2023-05-13T05:03:00.283Z,6.27
2023-05-13T05:05:26.742Z,6.60
2023-05-13T05:07:53.125Z,6.40
2023-05-13T05:10:19.965Z,6.30
2023-05-13T05:12:46.608Z,6.57
2023-05-13T05:15:15.735Z,6.27
2023-05-13T05:17:43.683Z,6.17
2023-05-13T05:20:11.009Z,6.00
2023-05-13T05:22:38.139Z,6.10
2023-05-13T05:25:05.138Z,6.40
2023-05-13T05:27:31.558Z,5.83
2023-05-13T05:29:58.241Z,6.57
2023-05-13T05:32:25.070Z,6.40
2023-05-13T05:34:52.601Z,6.67
2023-05-13T05:37:19.062Z,6.47
2023-05-13T05:39:45.545Z,6.80
2023-05-13T05:42:11.886Z,6.80
2023-05-13T05:44:38.258Z,7.00
2023-05-13T05:47:04.839Z,6.57
2023-05-13T05:49:31.315Z,6.87
2023-05-13T05:51:57.613Z,7.13
2023-05-13T05:54:24.153Z,6.40
2023-05-13T05:56:50.496Z,6.90
2023-05-13T05:59:16.817Z,7.07
2023-05-13T06:01:43.221Z,8.00
2023-05-13T06:04:09.690Z,8.13
2023-05-13T06:06:36.362Z,7.77
2023-05-13T06:09:02.913Z,7.47
2023-05-13T06:11:29.285Z,8.20
2023-05-13T06:13:57.392Z,8.73
2023-05-13T06:16:24.078Z,8.13
2023-05-13T06:18:50.662Z,8.07
2023-05-13T06:21:17.000Z,8.73
2023-05-13T06:23:43.372Z,8.97
2023-05-13T06:26:09.699Z,9.37
2023-05-13T06:28:36.039Z,9.40
2023-05-13T06:31:02.933Z,8.30
2023-05-13T06:33:29.321Z,8.87
2023-05-13T06:35:55.647Z,8.47
2023-05-13T06:38:22.121Z,9.00
2023-05-13T06:40:48.526Z,8.07
2023-05-13T06:43:16.195Z,8.17
2023-05-13T06:45:42.683Z,8.33
2023-05-13T06:48:09.149Z,7.90
2023-05-13T06:50:35.569Z,7.73
2023-05-13T06:53:02.164Z,7.47
2023-05-13T06:55:28.552Z,7.87
2023-05-13T06:57:55.001Z,7.87
2023-05-13T07:00:21.896Z,6.57
2023-05-13T07:02:48.469Z,7.03
2023-05-13T07:05:14.830Z,6.50
2023-05-13T07:07:42.362Z,6.10
2023-05-13T07:10:09.209Z,6.40
2023-05-13T07:12:35.570Z,5.90
2023-05-13T07:15:02.098Z,6.90
2023-05-13T07:17:28.626Z,5.97
2023-05-13T07:19:55.219Z,7.07
2023-05-13T07:22:21.616Z,5.93
2023-05-13T07:24:48.041Z,6.30
2023-05-13T07:27:14.412Z,6.43
2023-05-13T07:29:41.052Z,6.20
2023-05-13T07:32:07.766Z,6.40
2023-05-13T07:34:34.167Z,7.57
2023-05-13T07:37:00.820Z,7.30
2023-05-13T07:39:27.836Z,7.10
2023-05-13T07:41:54.322Z,7.70
2023-05-13T07:44:21.966Z,7.10
2023-05-13T07:46:49.375Z,7.00
2023-05-13T07:49:15.826Z,6.80
2023-05-13T07:51:42.285Z,6.60
2023-05-13T07:54:09.639Z,6.87
2023-05-13T07:56:38.095Z,6.43
2023-05-13T07:59:04.909Z,6.63
2023-05-13T08:01:31.396Z,6.50
2023-05-13T08:03:57.898Z,6.77
2023-05-13T08:06:24.386Z,6.70
2023-05-13T08:08:50.865Z,5.80
2023-05-13T08:11:17.394Z,6.67
2023-05-13T08:13:43.752Z,6.73
2023-05-13T08:16:10.139Z,6.90
2023-05-13T08:18:36.779Z,6.90
2023-05-13T08:21:03.362Z,6.57
2023-05-13T08:23:43.478Z,8.03
2023-05-13T08:26:11.578Z,7.60
2023-05-13T08:28:38.025Z,7.93
2023-05-13T08:31:04.594Z,9.13
2023-05-13T08:33:31.693Z,9.10
2023-05-13T08:35:59.897Z,7.03
2023-05-13T08:38:26.467Z,7.13
2023-05-13T08:40:52.950Z,6.97
2023-05-13T08:43:19.749Z,5.73
2023-05-13T08:45:47.640Z,5.57
2023-05-13T08:48:19.823Z,6.50
2023-05-13T08:50:47.091Z,5.97
2023-05-13T08:53:13.503Z,5.57
2023-05-13T08:55:42.985Z,4.63
2023-05-13T08:58:09.452Z,5.57
2023-05-13T09:00:36.152Z,5.03
2023-05-13T09:03:03.113Z,5.30
2023-05-13T09:05:29.670Z,7.07
2023-05-13T09:07:56.454Z,6.50
2023-05-13T09:10:22.905Z,6.80
2023-05-13T09:12:55.454Z,6.30
2023-05-13T09:15:26.858Z,8.40
2023-05-13T09:18:00.114Z,6.73
2023-05-13T09:20:26.996Z,7.30
2023-05-13T09:22:54.410Z,6.87
2023-05-13T09:25:24.412Z,6.60
2023-05-13T09:27:58.456Z,5.70
2023-05-13T09:30:30.166Z,5.70
2023-05-13T09:33:09.083Z,5.87
2023-05-13T09:35:37.840Z,5.20
2023-05-13T09:38:14.662Z,5.00
2023-05-13T09:40:41.819Z,4.70
2023-05-13T09:43:08.447Z,4.10
2023-05-13T09:45:36.157Z,3.83
2023-05-13T09:48:03.116Z,3.72
2023-05-13T09:50:31.377Z,4.13
2023-05-13T09:52:57.828Z,3.85
2023-05-13T09:55:24.217Z,4.57
2023-05-13T09:57:52.995Z,4.05
2023-05-13T10:00:29.222Z,3.90
2023-05-13T10:02:58.793Z,3.72
2023-05-13T10:05:25.360Z,4.28
2023-05-13T10:07:52.266Z,4.90
2023-05-13T10:10:19.875Z,5.43
2023-05-13T10:12:47.142Z,4.60
2023-05-13T10:15:14.049Z,4.93
2023-05-13T10:17:41.650Z,5.07
2023-05-13T10:20:08.639Z,4.50
2023-05-13T10:22:35.718Z,4.80
2023-05-13T10:25:03.911Z,4.13
2023-05-13T10:27:32.514Z,4.97
2023-05-13T10:30:03.133Z,4.50
2023-05-13T10:32:31.475Z,4.33
2023-05-13T10:35:12.152Z,4.23
2023-05-13T10:37:56.369Z,5.37
2023-05-13T10:40:41.843Z,5.47
2023-05-13T10:43:22.194Z,4.27
2023-05-13T10:45:56.546Z,4.30
2023-05-13T10:48:23.094Z,4.80
2023-05-13T10:50:55.646Z,4.57
2023-05-13T10:53:25.168Z,4.30
2023-05-13T10:56:00.761Z,3.90
2023-05-13T10:58:32.396Z,4.13
2023-05-13T11:01:19.386Z,4.87
2023-05-13T11:03:54.992Z,3.73
2023-05-13T11:06:41.137Z,3.73
2023-05-13T11:09:14.546Z,3.73
2023-05-13T11:11:41.368Z,3.60
2023-05-13T11:14:15.830Z,3.80
2023-05-13T11:17:06.682Z,3.63
2023-05-13T11:19:35.637Z,4.00
2023-05-13T11:22:12.142Z,3.60
2023-05-13T11:24:39.369Z,3.50
2023-05-13T11:27:16.300Z,3.20
2023-05-13T11:29:54.676Z,3.40
2023-05-13T11:32:56.773Z,3.60
2023-05-13T11:35:31.572Z,6.60
2023-05-13T11:38:00.547Z,3.07
2023-05-13T11:40:32.811Z,2.83
2023-05-13T11:42:59.955Z,2.90
2023-05-13T11:45:27.924Z,3.60
2023-05-13T11:47:56.490Z,3.13
2023-05-13T11:50:41.195Z,2.90
2023-05-13T11:53:07.726Z,2.73
2023-05-13T11:55:36.137Z,2.53
2023-05-13T11:58:03.800Z,2.50
2023-05-13T12:00:32.615Z,2.60
2023-05-13T12:03:00.571Z,2.63
2023-05-13T12:05:27.679Z,2.20
2023-05-13T12:07:58.416Z,2.20
2023-05-13T12:10:26.360Z,1.87
2023-05-13T12:12:53.179Z,2.03
2023-05-13T12:15:21.521Z,1.90
2023-05-13T12:17:49.312Z,2.03
2023-05-13T12:20:18.045Z,2.40
2023-05-13T12:22:44.398Z,2.17
2023-05-13T12:25:43.319Z,2.50
2023-05-13T12:28:11.866Z,2.40
2023-05-13T12:30:40.491Z,2.50
2023-05-13T12:33:16.636Z,2.20
2023-05-13T12:35:44.428Z,1.90
2023-05-13T12:38:16.348Z,2.27
2023-05-13T12:40:43.476Z,2.20
2023-05-13T12:43:11.150Z,1.90
2023-05-13T12:45:39.644Z,1.90
2023-05-13T12:48:08.100Z,1.93
2023-05-13T12:50:34.720Z,1.87
2023-05-13T12:53:01.116Z,1.90
2023-05-13T12:55:27.588Z,2.10
2023-05-13T12:58:00.602Z,2.47
2023-05-13T13:00:27.633Z,2.10
2023-05-13T13:02:54.309Z,2.33
2023-05-13T13:05:22.240Z,2.30
2023-05-13T13:07:48.959Z,2.20
2023-05-13T13:10:15.421Z,2.17
2023-05-13T13:12:42.594Z,2.60
2023-05-13T13:15:10.478Z,2.57
2023-05-13T13:17:36.931Z,2.53
2023-05-13T13:20:04.874Z,2.10
2023-05-13T13:22:31.604Z,2.00
2023-05-13T13:24:57.993Z,2.80
2023-05-13T13:27:24.498Z,2.40
2023-05-13T13:29:50.912Z,2.53
2023-05-13T13:32:17.382Z,2.13
2023-05-13T13:34:43.962Z,2.20
2023-05-13T13:37:10.258Z,2.20
2023-05-13T13:39:36.899Z,2.33
2023-05-13T13:42:06.624Z,2.30
2023-05-13T13:44:33.138Z,2.80
2023-05-13T13:46:59.997Z,2.73
2023-05-13T13:49:26.410Z,6.40
2023-05-13T13:51:53.013Z,2.80
2023-05-13T13:54:19.829Z,2.00
2023-05-13T13:56:47.266Z,1.77
2023-05-13T13:59:13.702Z,2.50
2023-05-13T14:01:41.245Z,2.38
2023-05-13T14:04:16.329Z,2.33
2023-05-13T14:06:44.603Z,2.65
2023-05-13T14:09:11.099Z,2.30
2023-05-13T14:11:37.595Z,2.80
2023-05-13T14:14:04.131Z,2.60
2023-05-13T14:16:30.721Z,2.50
2023-05-13T14:18:57.165Z,2.90
2023-05-13T14:21:23.668Z,2.90
2023-05-13T14:23:50.095Z,2.30
2023-05-13T14:26:16.498Z,2.23
2023-05-13T14:28:43.410Z,2.37
2023-05-13T14:31:10.041Z,2.40
2023-05-13T14:33:37.012Z,2.43
2023-05-13T14:36:03.794Z,2.60
2023-05-13T14:38:31.200Z,2.40
2023-05-13T14:40:58.219Z,2.10
2023-05-13T14:43:25.133Z,2.20
2023-05-13T14:45:51.794Z,2.30
2023-05-13T14:48:19.269Z,2.23
2023-05-13T14:50:46.526Z,2.27
2023-05-13T14:53:13.127Z,2.30
2023-05-13T14:55:39.538Z,2.53
2023-05-13T14:58:08.935Z,2.20
2023-05-13T15:00:39.786Z,2.37
2023-05-13T15:03:06.396Z,2.23
2023-05-13T15:05:32.885Z,2.30
2023-05-13T15:07:59.944Z,2.20
2023-05-13T15:10:26.355Z,2.30
2023-05-13T15:12:52.680Z,2.20
2023-05-13T15:15:19.183Z,1.90
2023-05-13T15:17:45.668Z,2.30
2023-05-13T15:20:12.561Z,2.23
2023-05-13T15:22:38.994Z,2.60
2023-05-13T15:25:05.733Z,3.13
2023-05-13T15:27:32.370Z,2.43
2023-05-13T15:29:58.820Z,2.37
2023-05-13T15:32:25.217Z,2.37
2023-05-13T15:34:51.553Z,6.20
2023-05-13T15:37:17.926Z,2.60
2023-05-13T15:39:44.690Z,2.50
2023-05-13T15:42:11.131Z,2.27
2023-05-13T15:44:37.665Z,2.30
2023-05-13T15:47:06.023Z,2.27
2023-05-13T15:49:35.779Z,2.10
2023-05-13T15:52:02.960Z,2.30
2023-05-13T15:54:30.177Z,2.50
2023-05-13T15:56:58.861Z,2.40
2023-05-13T15:59:25.258Z,2.40
2023-05-13T16:01:51.668Z,2.43
2023-05-13T16:04:18.034Z,2.30
2023-05-13T16:06:44.577Z,2.33
2023-05-13T16:09:10.984Z,2.93
2023-05-13T16:11:37.293Z,2.20
2023-05-13T16:14:04.602Z,2.47
2023-05-13T16:16:31.095Z,3.10
2023-05-13T16:18:58.342Z,4.03
2023-05-13T16:21:24.822Z,2.50
2023-05-13T16:23:51.172Z,2.50
2023-05-13T16:26:17.592Z,3.70
2023-05-13T16:28:44.018Z,3.20
2023-05-13T16:31:10.428Z,3.67
2023-05-13T16:33:36.743Z,3.57
2023-05-13T16:36:03.689Z,2.97
2023-05-13T16:38:30.420Z,3.10
2023-05-13T16:40:57.157Z,3.20
2023-05-13T16:43:23.654Z,2.83
2023-05-13T16:45:50.002Z,3.63
2023-05-13T16:48:16.539Z,3.43
2023-05-13T16:50:43.236Z,3.67
2023-05-13T16:53:09.783Z,3.03
2023-05-13T16:55:36.175Z,3.27
2023-05-13T16:58:02.596Z,3.40
2023-05-13T17:00:29.040Z,3.27
2023-05-13T17:02:55.422Z,3.30
2023-05-13T17:05:22.005Z,3.03
2023-05-13T17:07:48.446Z,3.10
2023-05-13T17:10:15.020Z,3.00
2023-05-13T17:12:41.494Z,2.90
2023-05-13T17:15:08.256Z,3.23
2023-05-13T17:17:35.366Z,3.23
2023-05-13T17:20:01.775Z,3.33
2023-05-13T17:22:28.123Z,3.37
2023-05-13T17:24:54.569Z,16.27
2023-05-13T17:27:21.537Z,6.40
2023-05-13T17:29:47.930Z,5.00
2023-05-13T17:32:14.452Z,3.97
2023-05-13T17:34:40.769Z,3.67
2023-05-13T17:37:07.095Z,3.20
2023-05-13T17:39:33.579Z,3.40
2023-05-13T17:41:59.954Z,3.23
2023-05-13T17:44:26.326Z,3.37
2023-05-13T17:46:52.708Z,3.03
2023-05-13T17:49:19.128Z,3.20
2023-05-13T17:51:45.435Z,3.00
2023-05-13T17:54:11.879Z,2.90
2023-05-13T17:56:38.210Z,3.00
2023-05-13T17:59:04.562Z,3.20
2023-05-13T18:01:31.089Z,3.00
2023-05-13T18:03:57.617Z,3.20
2023-05-13T18:06:23.995Z,2.80
2023-05-13T18:08:51.418Z,3.00
2023-05-13T18:11:17.781Z,2.97
2023-05-13T18:13:44.136Z,2.87
2023-05-13T18:16:11.630Z,3.20
2023-05-13T18:18:38.092Z,2.80
2023-05-13T18:21:04.507Z,2.90
2023-05-13T18:23:32.723Z,2.87
2023-05-13T18:25:59.256Z,2.80
2023-05-13T18:28:25.626Z,3.00
2023-05-13T18:30:52.066Z,3.20
2023-05-13T18:33:19.857Z,3.20
2023-05-13T18:35:46.278Z,3.53
2023-05-13T18:38:12.759Z,2.87
2023-05-13T18:40:39.072Z,2.80
2023-05-13T18:43:05.379Z,3.17
2023-05-13T18:45:31.924Z,3.67
2023-05-13T18:47:58.400Z,3.13
2023-05-13T18:50:25.090Z,3.17
2023-05-13T18:52:51.617Z,3.00
2023-05-13T18:55:18.018Z,3.20
2023-05-13T18:57:44.348Z,3.73
2023-05-13T19:00:11.241Z,3.40
2023-05-13T19:02:37.814Z,3.60
2023-05-13T19:05:05.117Z,3.57
2023-05-13T19:07:31.723Z,3.83
2023-05-13T19:09:58.012Z,3.90
2023-05-13T19:12:24.418Z,4.00
2023-05-13T19:14:50.829Z,3.80
2023-05-13T19:17:18.612Z,3.60
2023-05-13T19:19:45.139Z,3.77
2023-05-13T19:22:11.520Z,4.03
2023-05-13T19:24:37.840Z,3.73
2023-05-13T19:27:04.503Z,4.40
2023-05-13T19:29:30.940Z,4.50
2023-05-13T19:31:57.312Z,4.00
2023-05-13T19:34:23.728Z,4.67
2023-05-13T19:36:50.277Z,4.37
2023-05-13T19:39:16.698Z,4.40
2023-05-13T19:41:43.133Z,4.57
2023-05-13T19:44:09.638Z,4.57
2023-05-13T19:46:36.119Z,5.70
2023-05-13T19:49:02.508Z,4.90
2023-05-13T19:51:28.874Z,4.70
2023-05-13T19:53:55.339Z,4.70
2023-05-13T19:56:21.744Z,5.07
2023-05-13T19:58:48.629Z,4.90
2023-05-13T20:01:14.964Z,4.57
2023-05-13T20:03:41.686Z,6.57
2023-05-13T20:06:08.237Z,6.20
2023-05-13T20:08:35.655Z,5.50
2023-05-13T20:11:02.138Z,6.13
2023-05-13T20:13:29.540Z,6.03
2023-05-13T20:15:55.912Z,6.57
2023-05-13T20:18:22.357Z,6.33
2023-05-13T20:20:48.805Z,6.73
2023-05-13T20:23:15.301Z,7.17
2023-05-13T20:25:41.639Z,8.40
2023-05-13T20:28:08.071Z,8.17
2023-05-13T20:30:34.458Z,7.00
2023-05-13T20:33:00.977Z,7.30
2023-05-13T20:35:27.551Z,7.23
2023-05-13T20:37:54.380Z,7.20
2023-05-13T20:40:20.878Z,7.57
2023-05-13T20:42:47.911Z,7.00
2023-05-13T20:45:14.339Z,6.97
2023-05-13T20:47:40.681Z,7.73
2023-05-13T20:50:07.832Z,8.33
2023-05-13T20:52:34.382Z,7.73
2023-05-13T20:55:01.047Z,6.83
2023-05-13T20:57:27.599Z,6.60
2023-05-13T20:59:54.001Z,6.90
2023-05-13T21:02:20.364Z,6.87
2023-05-13T21:04:46.940Z,6.97
2023-05-13T21:07:13.344Z,6.13
2023-05-13T21:09:40.038Z,6.27
2023-05-13T21:12:06.995Z,6.67
2023-05-13T21:14:33.466Z,6.70
2023-05-13T21:17:03.046Z,6.37
2023-05-13T21:19:30.530Z,6.70
2023-05-13T21:21:57.696Z,6.67
2023-05-13T21:24:24.122Z,7.30
2023-05-13T21:26:50.861Z,6.50
2023-05-13T21:29:18.862Z,6.63
2023-05-13T21:31:45.957Z,6.10
2023-05-13T21:34:12.854Z,6.57
2023-05-13T21:36:39.368Z,6.67
2023-05-13T21:39:07.525Z,6.27
2023-05-13T21:41:34.005Z,6.53
2023-05-13T21:44:00.469Z,7.57
2023-05-13T21:46:26.806Z,7.63
2023-05-13T21:48:53.220Z,7.30
2023-05-13T21:51:19.664Z,7.97
2023-05-13T21:53:45.994Z,7.43
2023-05-13T21:56:12.344Z,6.90
2023-05-13T21:58:38.748Z,7.37
2023-05-13T22:01:05.101Z,7.30
2023-05-13T22:03:32.490Z,7.30
2023-05-13T22:05:58.843Z,6.87
2023-05-13T22:08:25.258Z,6.93
2023-05-13T22:10:51.591Z,7.17
2023-05-13T22:13:17.977Z,7.07
2023-05-13T22:15:44.355Z,7.20
2023-05-13T22:18:10.862Z,7.33
2023-05-13T22:20:37.243Z,7.17
2023-05-13T22:23:03.599Z,6.80
2023-05-13T22:25:29.995Z,7.37
2023-05-13T22:27:56.317Z,7.67
2023-05-13T22:30:23.004Z,7.13
2023-05-13T22:32:50.820Z,6.77
2023-05-13T22:35:17.442Z,7.13
2023-05-13T22:37:43.876Z,7.03
2023-05-13T22:40:11.184Z,6.47
2023-05-13T22:42:37.608Z,7.00
2023-05-13T22:45:04.738Z,6.87
2023-05-13T22:47:31.263Z,7.10
2023-05-13T22:49:57.599Z,6.50
2023-05-13T22:52:24.014Z,6.80
2023-05-13T22:54:50.404Z,7.20
2023-05-13T22:57:17.069Z,6.90
2023-05-13T22:59:43.505Z,6.97
2023-05-13T23:02:09.975Z,6.77
2023-05-13T23:04:36.498Z,6.57
2023-05-13T23:07:03.022Z,6.50
2023-05-13T23:09:29.433Z,6.27
2023-05-13T23:11:55.909Z,6.63
2023-05-13T23:14:22.330Z,6.57
2023-05-13T23:16:48.661Z,6.37
2023-05-13T23:19:15.586Z,6.70
2023-05-13T23:21:42.023Z,5.97
2023-05-13T23:24:08.457Z,6.53
2023-05-13T23:26:34.815Z,6.70
2023-05-13T23:29:01.127Z,6.63
2023-05-13T23:31:27.632Z,6.30
2023-05-13T23:33:54.038Z,6.80
2023-05-13T23:36:20.645Z,6.83
2023-05-13T23:38:47.228Z,6.37
2023-05-13T23:41:13.585Z,6.30
2023-05-13T23:43:39.963Z,6.53
2023-05-13T23:46:06.412Z,6.60
2023-05-13T23:48:32.751Z,6.00
2023-05-13T23:50:59.198Z,6.30
2023-05-13T23:53:25.604Z,6.20
2023-05-13T23:55:52.085Z,6.30
2023-05-13T23:58:18.553Z,6.53
